Time;durP1;ratioP1;P1;durP2;ratioP2;P2;SDS_P1;SDS_P2;PMS_P1;PMS_P2;Temp;Humidity;BMP_temperature;BMP_pressure;BME280_temperature;BME280_humidity;BME280_pressure;Samples;Min_cycle;Max_cycle;Signal;HPM_P1;HPM_P2
2023/08/06 00:00:19;;;;;;;;;0.00;0.00;;;;;19.40;100.00;100723.81;5076753;28;45369;-80
2023/08/06 00:02:44;;;;;;;;;0.33;0.00;;;;;19.62;100.00;100715.16;5046660;28;47371;-80
2023/08/06 00:05:10;;;;;;;;;3.00;0.00;;;;;19.49;100.00;100716.38;5070335;28;60684;-80
2023/08/06 00:07:35;;;;;;;;;1.00;0.00;;;;;19.44;100.00;100722.78;5075447;27;72085;-81
2023/08/06 00:10:00;;;;;;;;;0.67;0.00;;;;;19.44;100.00;100722.78;5076657;28;45407;-83
2023/08/06 00:12:26;;;;;;;;;0.00;0.00;;;;;19.48;100.00;100724.47;5058302;28;45500;-81
2023/08/06 00:14:52;;;;;;;;;0.00;0.00;;;;;19.42;100.00;100732.66;5075942;28;60647;-86
2023/08/06 00:17:18;;;;;;;;;1.67;0.00;;;;;19.45;100.00;100737.94;5075969;28;46639;-81
2023/08/06 00:19:43;;;;;;;;;0.00;0.00;;;;;19.46;100.00;100753.09;5077156;28;45185;-80
2023/08/06 00:22:09;;;;;;;;;0.00;0.00;;;;;19.65;100.00;100743.66;5040224;28;64129;-82
2023/08/06 00:24:35;;;;;;;;;0.00;0.00;;;;;19.57;100.00;100742.97;5059770;27;45501;-84
2023/08/06 00:27:00;;;;;;;;;1.00;0.00;;;;;19.60;100.00;100756.28;5062519;28;46779;-81
2023/08/06 00:29:25;;;;;;;;;0.00;0.00;;;;;19.46;100.00;100753.97;5076240;27;45286;-82
2023/08/06 00:31:51;;;;;;;;;0.33;0.00;;;;;19.46;100.00;100755.78;5075855;28;57536;-80
2023/08/06 00:34:16;;;;;;;;;0.00;0.00;;;;;19.60;100.00;100765.22;5076433;28;45279;-80
2023/08/06 00:36:41;;;;;;;;;0.00;0.00;;;;;19.70;100.00;100763.16;5075666;27;69041;-80
2023/08/06 00:39:07;;;;;;;;;0.00;0.00;;;;;19.72;100.00;100769.38;5076146;28;45434;-81
2023/08/06 00:41:32;;;;;;;;;0.00;0.00;;;;;19.77;100.00;100777.28;5078550;28;45395;-82
2023/08/06 00:43:58;;;;;;;;;0.00;0.00;;;;;19.67;100.00;100770.41;5076588;28;45523;-80
2023/08/06 00:46:23;;;;;;;;;0.00;0.00;;;;;19.70;100.00;100781.03;5078088;27;68271;-80
2023/08/06 00:48:50;;;;;;;;;0.67;0.00;;;;;19.69;100.00;100787.31;5061736;28;45499;-80
2023/08/06 00:51:15;;;;;;;;;0.00;0.00;;;;;19.72;100.00;100780.06;5061352;28;60865;-79
2023/08/06 00:53:41;;;;;;;;;0.00;0.00;;;;;19.72;100.00;100782.75;5078755;28;63136;-83
2023/08/06 00:56:07;;;;;;;;;2.00;0.00;;;;;19.71;100.00;100783.69;5060967;28;66356;-84
2023/08/06 00:58:32;;;;;;;;;0.00;0.00;;;;;19.60;100.00;100792.00;5061201;27;45364;-80
2023/08/06 01:00:58;;;;;;;;;3.00;1.00;;;;;19.45;100.00;100799.53;5060821;28;60453;-84
2023/08/06 01:03:23;;;;;;;;;1.67;0.67;;;;;19.57;100.00;100801.88;5078734;28;62210;-80
2023/08/06 01:05:49;;;;;;;;;0.00;0.00;;;;;19.49;100.00;100793.16;5054422;28;45694;-80
2023/08/06 01:08:45;;;;;;;;;0.00;0.00;;;;;19.38;100.00;100804.16;5075612;28;66952;-80
2023/08/06 01:11:25;;;;;;;;;2.00;1.00;;;;;19.24;100.00;100817.03;5076070;28;45458;-83
2023/08/06 01:13:56;;;;;;;;;1.00;1.00;;;;;19.35;100.00;100813.16;5079328;27;45570;-81
2023/08/06 01:16:23;;;;;;;;;1.33;0.00;;;;;19.40;100.00;100809.50;5060955;28;45533;-80
2023/08/06 01:18:51;;;;;;;;;1.00;1.00;;;;;19.36;100.00;100812.22;5060240;28;66241;-82
2023/08/06 01:21:17;;;;;;;;;0.00;0.00;;;;;19.23;100.00;100820.59;5079408;27;45406;-80
2023/08/06 01:23:43;;;;;;;;;2.00;1.00;;;;;19.42;100.00;100826.38;5061183;28;45461;-81
2023/08/06 01:26:19;;;;;;;;;1.67;1.00;;;;;19.26;100.00;100832.13;5082868;27;47317;-81
2023/08/06 01:29:06;;;;;;;;;1.00;0.00;;;;;19.29;100.00;100845.44;5060828;28;45336;-80
2023/08/06 01:31:33;;;;;;;;;0.67;0.67;;;;;19.14;100.00;100852.97;5058826;28;45432;-80
2023/08/06 01:34:01;;;;;;;;;1.00;1.00;;;;;19.42;100.00;100843.31;5078281;28;45478;-84
2023/08/06 01:36:27;;;;;;;;;1.33;1.33;;;;;19.45;100.00;100848.63;5073481;28;45751;-80
2023/08/06 01:38:55;;;;;;;;;4.00;1.00;;;;;19.24;100.00;100849.16;5058646;28;45477;-81
2023/08/06 01:41:20;;;;;;;;;2.00;1.00;;;;;19.21;100.00;100850.09;5050364;28;45237;-80
2023/08/06 01:43:46;;;;;;;;;1.00;1.00;;;;;19.24;100.00;100860.75;5077512;27;45437;-80
2023/08/06 01:46:11;;;;;;;;;2.00;2.00;;;;;19.41;100.00;100873.72;5059841;28;69573;-81
2023/08/06 01:48:37;;;;;;;;;4.00;1.67;;;;;19.40;100.00;100863.03;5077253;28;58039;-81
2023/08/06 01:51:05;;;;;;;;;2.00;1.00;;;;;19.22;100.00;100859.88;5078372;27;63453;-80
2023/08/06 01:53:31;;;;;;;;;2.33;1.00;;;;;19.11;100.00;100872.63;5060874;28;45542;-84
2023/08/06 01:55:57;;;;;;;;;3.00;2.00;;;;;19.09;100.00;100879.84;5077721;28;46541;-83
2023/08/06 01:58:22;;;;;;;;;2.00;2.00;;;;;19.15;100.00;100877.00;5045218;28;46450;-82
2023/08/06 02:00:47;;;;;;;;;1.67;1.67;;;;;19.29;100.00;100874.00;5056049;27;66640;-84
2023/08/06 02:03:13;;;;;;;;;1.67;1.00;;;;;19.42;100.00;100886.16;5077594;28;63824;-82
2023/08/06 02:05:38;;;;;;;;;4.00;1.67;;;;;19.31;100.00;100877.53;5076888;27;64469;-85
2023/08/06 02:08:03;;;;;;;;;2.67;1.00;;;;;19.35;100.00;100881.91;5075887;27;45371;-83
2023/08/06 02:10:29;;;;;;;;;5.00;2.00;;;;;19.24;100.00;100894.66;5078178;27;65795;-83
2023/08/06 02:12:54;;;;;;;;;3.33;2.00;;;;;19.15;100.00;100905.56;5077434;27;59955;-79
2023/08/06 02:15:19;;;;;;;;;2.00;2.00;;;;;19.09;100.00;100907.47;5077587;28;69055;-80
2023/08/06 02:17:45;;;;;;;;;3.00;2.00;;;;;19.15;100.00;100910.94;5064054;28;57764;-82
2023/08/06 02:20:10;;;;;;;;;1.00;1.00;;;;;19.17;100.00;100899.25;5064512;28;63442;-82
2023/08/06 02:22:36;;;;;;;;;2.00;2.00;;;;;19.22;100.00;100901.84;5076100;28;45487;-81
2023/08/06 02:25:01;;;;;;;;;4.67;2.00;;;;;19.23;100.00;100917.88;5077212;27;67516;-82
2023/08/06 02:27:26;;;;;;;;;2.33;2.33;;;;;19.22;100.00;100917.88;5073153;27;45418;-80
2023/08/06 02:29:52;;;;;;;;;2.00;2.00;;;;;19.02;100.00;100931.75;5078130;28;45320;-81
2023/08/06 02:32:17;;;;;;;;;2.67;2.00;;;;;18.88;100.00;100918.66;5077431;28;59745;-81
2023/08/06 02:34:42;;;;;;;;;2.00;2.00;;;;;18.90;100.00;100927.53;5060056;28;48661;-80
2023/08/06 02:37:08;;;;;;;;;1.67;1.67;;;;;18.89;100.00;100935.59;5058670;27;64262;-83
2023/08/06 02:39:34;;;;;;;;;2.33;2.33;;;;;18.93;100.00;100939.97;5077856;28;62449;-81
2023/08/06 02:41:59;;;;;;;;;3.67;3.00;;;;;18.94;100.00;100936.38;5077567;28;45220;-80
2023/08/06 02:44:27;;;;;;;;;4.00;2.33;;;;;18.89;100.00;100938.28;5077554;28;64932;-82
2023/08/06 02:46:53;;;;;;;;;7.00;3.00;;;;;18.91;100.00;100932.00;5065148;27;45407;-81
2023/08/06 02:49:18;;;;;;;;;5.00;2.00;;;;;18.92;100.00;100943.56;5078227;27;45326;-80
2023/08/06 02:51:45;;;;;;;;;2.00;2.00;;;;;18.96;100.00;100951.50;5076624;27;59548;-80
2023/08/06 02:54:10;;;;;;;;;2.00;2.00;;;;;18.91;100.00;100948.03;5059701;28;47300;-82
2023/08/06 02:56:35;;;;;;;;;4.00;3.00;;;;;18.94;100.00;100952.44;5076965;28;65173;-84
2023/08/06 02:59:01;;;;;;;;;3.00;3.00;;;;;18.92;100.00;100959.63;5077562;28;45272;-80
2023/08/06 03:01:26;;;;;;;;;2.00;2.00;;;;;18.91;100.00;100963.19;5077152;28;61234;-81
2023/08/06 03:03:52;;;;;;;;;4.00;2.00;;;;;18.88;100.00;100952.56;5048666;28;47595;-81
2023/08/06 03:06:17;;;;;;;;;3.00;3.00;;;;;18.90;100.00;100961.44;5076643;28;63715;-80
2023/08/06 03:08:42;;;;;;;;;3.67;2.00;;;;;18.89;100.00;100973.06;5074875;27;61871;-84
2023/08/06 03:11:08;;;;;;;;;3.00;3.00;;;;;18.94;100.00;100969.38;5055552;28;61581;-83
2023/08/06 03:13:33;;;;;;;;;3.00;3.00;;;;;18.93;100.00;100978.31;5076889;28;70054;-79
2023/08/06 03:15:59;;;;;;;;;4.67;2.00;;;;;18.89;100.00;100971.25;5076287;27;67095;-83
2023/08/06 03:18:28;;;;;;;;;3.67;3.67;;;;;18.87;100.00;100980.25;5059655;28;45224;-80
2023/08/06 03:20:54;;;;;;;;;2.33;2.33;;;;;18.84;100.00;100963.31;5077162;27;45209;-84
2023/08/06 03:23:19;;;;;;;;;3.67;2.00;;;;;18.81;100.00;100978.56;5059249;28;47586;-84
2023/08/06 03:25:45;;;;;;;;;3.67;3.67;;;;;18.79;100.00;100980.38;5077350;27;45458;-83
2023/08/06 03:28:10;;;;;;;;;3.00;3.00;;;;;18.72;100.00;100974.28;5077365;28;45264;-80
2023/08/06 03:30:36;;;;;;;;;5.00;4.00;;;;;18.74;100.00;100975.13;5077192;28;45405;-81
2023/08/06 03:33:01;;;;;;;;;3.67;3.67;;;;;18.72;100.00;100976.97;5075946;28;68625;-81
2023/08/06 03:35:26;;;;;;;;;2.00;2.00;;;;;18.73;100.00;100973.38;5058005;27;67542;-80
2023/08/06 03:37:52;;;;;;;;;2.00;2.00;;;;;18.73;100.00;100975.16;5086096;27;45273;-81
2023/08/06 03:40:17;;;;;;;;;4.00;2.67;;;;;18.76;100.00;100977.78;5060846;28;45514;-81
2023/08/06 03:42:42;;;;;;;;;3.00;3.00;;;;;18.74;100.00;100972.44;5076820;27;47120;-80
2023/08/06 03:45:08;;;;;;;;;7.33;4.33;;;;;18.78;100.00;100978.63;5076268;28;67051;-81
2023/08/06 03:47:34;;;;;;;;;2.33;2.33;;;;;18.79;100.00;100980.38;5076997;28;45466;-84
2023/08/06 03:49:59;;;;;;;;;3.33;2.67;;;;;18.86;100.00;100987.38;5076905;28;45410;-82
2023/08/06 03:52:24;;;;;;;;;3.00;3.00;;;;;18.87;100.00;100989.16;5077209;27;47617;-84
2023/08/06 03:54:50;;;;;;;;;5.00;4.00;;;;;18.82;100.00;100975.88;5058634;28;51308;-81
2023/08/06 03:57:15;;;;;;;;;3.33;3.33;;;;;18.84;100.00;100987.41;5054406;28;62548;-83
2023/08/06 03:59:41;;;;;;;;;3.00;3.00;;;;;18.85;100.00;100990.97;5073555;28;45487;-81
2023/08/06 04:02:06;;;;;;;;;5.33;4.00;;;;;18.88;100.00;100992.69;5076095;27;45288;-80
2023/08/06 04:04:31;;;;;;;;;9.67;3.00;;;;;18.83;100.00;100992.78;5075913;28;63526;-82
2023/08/06 04:06:57;;;;;;;;;5.67;4.00;;;;;18.87;100.00;100997.19;5077104;28;45506;-81
2023/08/06 04:09:22;;;;;;;;;2.00;2.00;;;;;18.96;100.00;101007.69;5074508;28;57873;-83
2023/08/06 04:11:47;;;;;;;;;3.00;3.00;;;;;19.02;100.00;101014.72;5076032;27;64960;-81
2023/08/06 04:14:13;;;;;;;;;5.00;2.33;;;;;18.90;100.00;101014.94;5070667;27;65546;-81
2023/08/06 04:16:38;;;;;;;;;3.00;3.00;;;;;18.92;100.00;101026.53;5078293;27;62167;-80
2023/08/06 04:19:03;;;;;;;;;2.00;2.00;;;;;18.92;100.00;101042.56;5061215;27;61658;-83
2023/08/06 04:21:29;;;;;;;;;4.67;4.00;;;;;18.92;100.00;101043.44;5061572;28;65687;-81
2023/08/06 04:23:54;;;;;;;;;2.00;2.00;;;;;18.90;100.00;101049.72;5080264;28;45438;-81
2023/08/06 04:26:19;;;;;;;;;4.00;4.00;;;;;18.91;100.00;101038.09;5053601;27;45497;-83
2023/08/06 04:28:44;;;;;;;;;2.67;2.33;;;;;18.82;100.00;101049.91;5079417;27;60465;-83
2023/08/06 04:31:10;;;;;;;;;6.33;4.00;;;;;18.81;100.00;101043.66;5079161;27;55029;-79
2023/08/06 04:33:35;;;;;;;;;3.33;3.33;;;;;18.79;100.00;101044.59;5078780;28;45431;-80
2023/08/06 04:36:00;;;;;;;;;4.33;3.00;;;;;18.87;100.00;101056.03;5076372;28;58781;-85
2023/08/06 04:38:26;;;;;;;;;4.00;4.00;;;;;18.88;100.00;101063.16;5079165;28;60655;-81
2023/08/06 04:40:52;;;;;;;;;3.67;3.00;;;;;18.88;100.00;101065.81;5062038;28;45507;-79
2023/08/06 04:43:17;;;;;;;;;5.67;4.00;;;;;18.88;100.00;101059.59;5061232;28;45395;-81
2023/08/06 04:45:47;;;;;;;;;3.00;3.00;;;;;18.89;100.00;101067.59;5045249;28;45304;-85
2023/08/06 04:48:12;;;;;;;;;3.00;3.00;;;;;18.97;100.00;101067.44;5079742;27;45604;-82
2023/08/06 04:50:38;;;;;;;;;2.67;2.33;;;;;19.01;100.00;101072.69;5061479;28;46190;-80
2023/08/06 04:53:03;;;;;;;;;6.00;3.00;;;;;19.02;100.00;101082.50;5078999;28;65415;-84
2023/08/06 04:55:28;;;;;;;;;3.33;3.33;;;;;19.06;100.00;101092.22;5078767;27;61210;-81
2023/08/06 04:57:54;;;;;;;;;2.33;2.33;;;;;19.15;100.00;101088.47;5079089;28;58521;-80
2023/08/06 05:00:19;;;;;;;;;4.00;4.00;;;;;19.18;100.00;101091.09;5078426;28;71047;-83
2023/08/06 05:02:44;;;;;;;;;3.00;3.00;;;;;19.14;100.00;101089.41;5073107;28;63059;-82
2023/08/06 05:05:10;;;;;;;;;2.00;2.00;;;;;19.18;100.00;101098.25;5067749;28;64031;-80
2023/08/06 05:07:35;;;;;;;;;3.33;2.00;;;;;19.19;100.00;101106.25;5058742;28;47612;-81
2023/08/06 05:10:00;;;;;;;;;4.00;3.00;;;;;19.16;100.00;101102.75;5066292;28;46091;-81
2023/08/06 05:12:26;;;;;;;;;2.00;2.00;;;;;19.14;100.00;101100.09;5078857;27;45346;-82
2023/08/06 05:14:51;;;;;;;;;6.00;3.00;;;;;19.16;100.00;101108.09;5079677;28;45413;-81
2023/08/06 05:17:16;;;;;;;;;1.67;1.00;;;;;19.17;100.00;101116.09;5078076;28;60050;-83
2023/08/06 05:22:07;;;;;;;;;5.67;5.00;;;;;19.16;100.00;101125.03;5210171;22;71821;-79
2023/08/06 05:24:32;;;;;;;;;3.00;3.00;;;;;19.12;100.00;101131.34;5096948;27;63413;-80
2023/08/06 05:26:57;;;;;;;;;4.00;3.00;;;;;19.11;100.00;101140.31;5103788;27;61736;-80
2023/08/06 05:29:23;;;;;;;;;4.33;3.00;;;;;19.02;100.00;101137.81;5098404;27;67760;-84
2023/08/06 05:31:48;;;;;;;;;3.33;2.33;;;;;18.97;100.00;101134.34;5098089;27;64671;-81
2023/08/06 05:34:13;;;;;;;;;3.67;3.67;;;;;18.98;100.00;101144.13;5098860;27;50655;-81
2023/08/06 05:36:39;;;;;;;;;2.00;2.00;;;;;18.98;100.00;101160.19;5086876;27;59453;-83
2023/08/06 05:39:04;;;;;;;;;2.67;2.67;;;;;19.04;100.00;101155.59;5087124;27;67065;-80
2023/08/06 05:41:29;;;;;;;;;3.00;3.00;;;;;19.10;100.00;101162.63;5080843;27;45370;-81
2023/08/06 05:43:55;;;;;;;;;2.00;2.00;;;;;19.09;100.00;101174.25;5067049;27;64612;-79
2023/08/06 05:46:20;;;;;;;;;2.67;2.00;;;;;19.11;100.00;101177.78;5099671;27;45255;-80
2023/08/06 05:48:45;;;;;;;;;3.67;2.33;;;;;19.17;100.00;101177.66;5098616;27;57808;-84
2023/08/06 05:51:13;;;;;;;;;4.33;3.00;;;;;19.21;100.00;101183.84;5099406;27;45335;-80
2023/08/06 05:53:38;;;;;;;;;2.00;2.00;;;;;19.20;100.00;101174.94;5072057;27;45170;-79
2023/08/06 05:56:03;;;;;;;;;2.67;2.67;;;;;19.21;100.00;101186.53;5099165;27;45486;-82
2023/08/06 05:58:30;;;;;;;;;6.00;4.00;;;;;19.27;100.00;101189.97;5092272;27;46225;-80
2023/08/06 06:00:56;;;;;;;;;3.67;2.33;;;;;19.25;100.00;101183.75;5087018;27;45328;-80
2023/08/06 06:03:21;;;;;;;;;3.67;2.00;;;;;19.22;100.00;101188.28;5098882;27;45303;-83
2023/08/06 06:05:46;;;;;;;;;5.00;3.00;;;;;19.26;100.00;101195.34;5078798;27;47223;-78
2023/08/06 06:08:12;;;;;;;;;1.00;1.00;;;;;19.24;100.00;101198.06;5079026;27;47781;-79
2023/08/06 06:10:37;;;;;;;;;3.67;2.33;;;;;19.27;100.00;101207.81;5095733;27;67340;-80
2023/08/06 06:13:02;;;;;;;;;3.00;2.00;;;;;19.31;100.00;101207.75;5097183;27;58598;-80
2023/08/06 06:15:28;;;;;;;;;3.00;3.00;;;;;19.27;100.00;101208.69;5098561;27;56934;-80
2023/08/06 06:17:53;;;;;;;;;1.33;1.33;;;;;19.28;100.00;101213.16;5097199;27;47608;-82
2023/08/06 06:20:18;;;;;;;;;2.33;2.33;;;;;19.27;100.00;101218.53;5098075;27;63686;-80
2023/08/06 06:22:44;;;;;;;;;2.00;2.00;;;;;19.44;100.00;101215.53;5079886;27;53174;-83
2023/08/06 06:25:10;;;;;;;;;2.00;2.00;;;;;19.65;100.00;101219.59;5098905;27;45277;-79
2023/08/06 06:27:35;;;;;;;;;3.33;3.33;;;;;19.82;100.00;101221.06;5080054;27;47462;-81
2023/08/06 06:30:01;;;;;;;;;1.00;1.00;;;;;19.60;100.00;101223.28;5079649;27;60522;-79
2023/08/06 06:32:26;;;;;;;;;2.00;2.00;;;;;19.54;100.00;101235.88;5098192;27;49324;-80
2023/08/06 06:34:51;;;;;;;;;1.67;1.00;;;;;19.52;100.00;101238.59;5079898;27;59769;-79
2023/08/06 06:37:17;;;;;;;;;2.00;2.00;;;;;19.59;100.00;101244.72;5093799;27;67804;-81
2023/08/06 06:39:42;;;;;;;;;3.00;2.00;;;;;19.89;100.00;101245.91;5089739;27;45301;-82
2023/08/06 06:42:08;;;;;;;;;2.33;2.33;;;;;19.62;100.00;101248.25;5098018;27;45572;-83
2023/08/06 06:44:33;;;;;;;;;4.00;3.00;;;;;19.57;100.00;101243.84;5099166;27;45130;-79
2023/08/06 06:46:58;;;;;;;;;4.00;2.67;;;;;19.54;100.00;101247.47;5084452;27;69437;-80
2023/08/06 06:49:23;;;;;;;;;2.33;2.00;;;;;19.62;100.00;101250.91;5088579;27;54934;-83
2023/08/06 06:51:49;;;;;;;;;2.00;2.00;;;;;19.69;100.00;101253.47;5096374;27;45317;-83
2023/08/06 06:54:14;;;;;;;;;3.00;1.00;;;;;19.61;100.00;101262.56;5098796;27;45536;-83
2023/08/06 06:56:40;;;;;;;;;3.00;1.33;;;;;19.54;100.00;101259.97;5089590;27;47220;-82
2023/08/06 06:59:05;;;;;;;;;1.00;1.00;;;;;19.57;100.00;101251.88;5097229;27;63166;-82
2023/08/06 07:01:30;;;;;;;;;1.00;1.00;;;;;19.68;100.00;101260.63;5098051;27;45446;-81
2023/08/06 07:03:57;;;;;;;;;1.00;1.00;;;;;19.99;100.00;101250.16;5095305;27;45642;-83
2023/08/06 07:06:22;;;;;;;;;1.00;1.00;;;;;19.87;100.00;101255.78;5094970;27;46734;-85
2023/08/06 07:08:47;;;;;;;;;3.00;2.00;;;;;19.78;100.00;101258.66;5074444;27;59274;-84
2023/08/06 07:11:13;;;;;;;;;4.00;2.00;;;;;19.86;100.00;101257.56;5086512;27;45537;-82
2023/08/06 07:13:38;;;;;;;;;0.00;0.00;;;;;19.72;100.00;101259.66;5097103;27;45456;-80
2023/08/06 07:16:03;;;;;;;;;1.00;1.00;;;;;19.87;100.00;101269.19;5090345;27;68677;-81
2023/08/06 07:18:29;;;;;;;;;3.00;1.00;;;;;19.68;100.00;101267.78;5094996;27;45605;-79
2023/08/06 07:20:55;;;;;;;;;1.00;1.00;;;;;19.69;100.00;101277.59;5061163;27;45499;-83
2023/08/06 07:23:21;;;;;;;;;1.00;1.00;;;;;19.69;100.00;101275.78;5070866;27;46789;-83
2023/08/06 07:25:47;;;;;;;;;1.00;1.00;;;;;19.73;100.00;101271.25;5096425;27;45490;-82
2023/08/06 07:28:14;;;;;;;;;2.67;1.67;;;;;19.82;100.00;101287.16;5074318;27;45299;-85
2023/08/06 07:30:40;;;;;;;;;0.33;0.33;;;;;19.76;100.00;101263.16;5094281;27;45551;-81
2023/08/06 07:33:06;;;;;;;;;3.00;1.67;;;;;19.82;100.00;101265.72;5097086;27;45629;-86
2023/08/06 07:35:31;;;;;;;;;3.00;1.00;;;;;19.85;100.00;101271.88;5093110;27;46505;-87
2023/08/06 07:37:57;;;;;;;;;4.00;2.00;;;;;19.93;100.00;101276.22;5056315;27;46115;-84
2023/08/06 07:40:22;;;;;;;;;3.33;2.00;;;;;19.91;100.00;101278.03;5087383;27;57208;-84
2023/08/06 07:42:47;;;;;;;;;2.00;1.00;;;;;19.96;100.00;101270.78;5090491;27;56056;-85
2023/08/06 07:45:14;;;;;;;;;2.33;2.00;;;;;19.95;100.00;101269.91;5096199;27;53318;-83
2023/08/06 07:47:39;;;;;;;;;2.00;2.00;;;;;20.01;100.00;101276.94;5078541;27;46448;-84
2023/08/06 07:50:05;;;;;;;;;2.00;2.00;;;;;20.06;100.00;101275.91;5072521;27;45359;-82
2023/08/06 07:52:30;;;;;;;;;2.00;2.00;;;;;20.19;100.00;101272.97;5068445;27;45499;-85
2023/08/06 07:54:55;;;;;;;;;3.00;1.00;;;;;20.27;100.00;101276.38;5075533;27;68926;-82
2023/08/06 07:57:21;;;;;;;;;2.67;2.00;;;;;20.43;100.00;101283.16;5068472;28;59299;-84
2023/08/06 07:59:46;;;;;;;;;1.00;1.00;;;;;20.52;100.00;101280.31;5060413;27;61667;-83
2023/08/06 08:02:11;;;;;;;;;2.67;2.00;;;;;20.78;100.00;101293.13;5070689;27;60269;-86
2023/08/06 08:04:37;;;;;;;;;2.00;2.00;;;;;20.94;100.00;101296.34;5060154;27;48796;-87
2023/08/06 08:07:02;;;;;;;;;3.00;1.00;;;;;20.86;100.00;101291.13;5078124;27;68209;-87
2023/08/06 08:09:27;;;;;;;;;2.67;1.00;;;;;20.87;100.00;101311.69;5073391;27;45322;-85
2023/08/06 08:11:53;;;;;;;;;2.00;2.00;;;;;20.76;100.00;101299.44;5058095;28;45366;-85
2023/08/06 08:14:18;;;;;;;;;3.67;2.00;;;;;20.67;100.00;101305.94;5062981;27;46740;-83
2023/08/06 08:16:43;;;;;;;;;1.00;1.00;;;;;20.75;100.00;101303.94;5063354;28;66050;-85
2023/08/06 08:19:09;;;;;;;;;0.00;0.00;;;;;20.62;100.00;101300.66;5081931;27;53473;-84
2023/08/06 08:21:34;;;;;;;;;2.33;2.33;;;;;20.58;100.00;101306.13;5067986;28;55565;-85
2023/08/06 08:24:01;;;;;;;;;3.00;2.00;;;;;20.49;100.00;101306.31;5062769;27;46888;-85
2023/08/06 08:26:27;;;;;;;;;3.00;3.00;;;;;20.51;100.00;101316.13;5074883;27;45350;-85
2023/08/06 08:28:53;;;;;;;;;5.00;2.00;;;;;20.59;100.00;101311.44;5076102;27;45493;-85
2023/08/06 08:31:18;;;;;;;;;1.00;1.00;;;;;20.80;100.00;101314.56;5076192;27;45573;-84
2023/08/06 08:33:44;;;;;;;;;2.33;2.00;;;;;20.96;100.00;101307.03;5059544;27;72701;-82
2023/08/06 08:36:09;;;;;;;;;3.00;1.00;;;;;21.09;100.00;101317.44;5095126;27;45393;-84
2023/08/06 08:38:35;;;;;;;;;2.00;2.00;;;;;21.11;100.00;101314.69;5060839;27;45514;-82
2023/08/06 08:41:00;;;;;;;;;3.00;2.67;;;;;21.01;100.00;101322.09;5078434;27;45485;-85
2023/08/06 08:43:27;;;;;;;;;2.00;2.00;;;;;20.92;100.00;101336.63;5064788;27;46615;-86
2023/08/06 08:45:55;;;;;;;;;2.00;2.00;;;;;20.92;100.00;101336.63;5054250;28;45593;-87
2023/08/06 08:48:21;;;;;;;;;2.00;2.00;;;;;20.79;100.00;101329.78;5075335;27;45465;-85
2023/08/06 08:50:48;;;;;;;;;2.00;2.00;;;;;20.77;100.00;101346.81;5058459;27;50644;-84
2023/08/06 08:53:15;;;;;;;;;4.00;2.00;;;;;20.65;100.00;101338.13;5060248;27;48055;-85
2023/08/06 08:55:42;;;;;;;;;2.67;2.00;;;;;20.66;100.00;101341.69;5095696;27;45822;-85
2023/08/06 08:58:08;;;;;;;;;3.33;2.00;;;;;20.70;100.00;101343.41;5092945;27;45548;-85
2023/08/06 09:00:33;;;;;;;;;2.00;2.00;;;;;20.84;100.00;101353.84;5077869;27;57338;-85
2023/08/06 09:02:59;;;;;;;;;2.00;2.00;;;;;21.24;100.00;101345.69;5097719;27;64734;-87
2023/08/06 09:05:28;;;;;;;;;4.33;2.00;;;;;21.16;100.00;101340.53;5077957;27;46234;-85
2023/08/06 09:07:55;;;;;;;;;2.67;1.67;;;;;21.27;100.00;101361.75;5097209;27;45319;-85
2023/08/06 09:10:23;;;;;;;;;2.33;1.00;;;;;21.32;100.00;101365.22;5064952;27;45494;-84
2023/08/06 09:12:51;;;;;;;;;3.00;1.67;;;;;21.31;100.00;101352.72;5080224;27;47398;-85
2023/08/06 09:15:16;;;;;;;;;4.00;2.00;;;;;21.28;100.00;101355.44;5081397;27;45978;-84
2023/08/06 09:17:41;;;;;;;;;3.00;2.00;;;;;21.30;100.00;101361.69;5080337;27;61609;-87
2023/08/06 09:20:14;;;;;;;;;2.00;2.00;;;;;21.31;100.00;101357.22;5080181;27;61213;-87
2023/08/06 09:22:39;;;;;;;;;5.00;2.00;;;;;21.46;100.00;101359.50;5078130;27;46723;-86
2023/08/06 09:25:09;;;;;;;;;2.00;2.00;;;;;21.81;100.00;101360.38;5063250;27;45498;-85
2023/08/06 09:27:36;;;;;;;;;3.00;1.33;;;;;21.94;100.00;101364.50;5096087;27;45489;-84
2023/08/06 09:30:03;;;;;;;;;3.00;2.00;;;;;21.88;100.00;101378.09;5081574;27;45352;-82
2023/08/06 09:32:47;;;;;;;;;1.33;1.33;;;;;21.87;100.00;101381.72;5080159;27;45713;-86
2023/08/06 09:35:17;;;;;;;;;2.00;2.00;;;;;21.74;100.00;101383.88;5080664;27;45478;-84
2023/08/06 09:37:43;;;;;;;;;2.33;1.33;;;;;21.60;100.00;101380.66;5099982;27;45403;-85
2023/08/06 09:40:24;;;;;;;;;4.00;1.00;;;;;21.56;100.00;101382.53;5096612;27;45517;-85
2023/08/06 09:42:50;;;;;;;;;1.00;1.00;;;;;21.51;100.00;101380.88;5097633;27;47839;-85
2023/08/06 09:45:16;;;;;;;;;3.00;2.00;;;;;21.77;100.00;101378.38;5063594;27;45646;-85
2023/08/06 09:47:41;;;;;;;;;3.00;2.00;;;;;21.77;100.00;101375.69;5099117;27;45354;-84
2023/08/06 09:50:15;;;;;;;;;1.00;1.00;;;;;21.92;100.00;101375.28;5079503;27;48708;-86
2023/08/06 09:52:42;;;;;;;;;5.00;2.00;;;;;22.04;100.00;101376.75;5057435;27;47382;-84
2023/08/06 09:55:08;;;;;;;;;1.67;1.00;;;;;22.15;100.00;101374.69;5091320;27;45312;-87
2023/08/06 09:57:33;;;;;;;;;4.67;1.33;;;;;22.28;100.00;101358.22;5063231;27;64081;-84
2023/08/06 09:59:59;;;;;;;;;1.00;0.33;;;;;22.53;100.00;101363.72;5080243;27;56989;-87
2023/08/06 10:02:25;;;;;;;;;0.00;0.00;;;;;22.43;100.00;101380.16;5063480;27;47390;-87
2023/08/06 10:04:51;;;;;;;;;2.00;2.00;;;;;22.61;98.22;101388.63;5080369;27;65508;-86
2023/08/06 10:07:18;;;;;;;;;1.33;1.33;;;;;22.46;98.07;101393.50;5077137;27;61539;-86
2023/08/06 10:09:43;;;;;;;;;0.33;0.33;;;;;22.25;98.06;101387.88;5063755;27;45526;-87
2023/08/06 10:12:09;;;;;;;;;1.00;1.00;;;;;22.41;99.56;101379.31;5063450;27;47308;-84
2023/08/06 10:14:37;;;;;;;;;5.00;1.00;;;;;22.48;99.00;101380.03;5078011;27;68490;-85
2023/08/06 10:17:02;;;;;;;;;0.33;0.33;;;;;22.55;97.63;101384.28;5081113;27;45320;-85
2023/08/06 10:19:29;;;;;;;;;3.00;0.33;;;;;22.47;97.72;101392.59;5098325;27;45536;-85
2023/08/06 10:22:12;;;;;;;;;0.33;0.33;;;;;22.43;96.77;101395.44;5076517;28;47216;-85
2023/08/06 10:24:49;;;;;;;;;0.67;0.67;;;;;22.34;97.88;101390.31;5063433;27;45482;-85
2023/08/06 10:27:33;;;;;;;;;1.00;1.00;;;;;22.31;98.41;101387.69;5080764;27;45463;-86
2023/08/06 10:30:24;;;;;;;;;0.33;0.33;;;;;22.38;97.76;101383.91;5090379;27;45339;-86
2023/08/06 10:32:51;;;;;;;;;3.67;1.00;;;;;22.52;96.96;101380.81;5079800;27;46788;-88
2023/08/06 10:35:29;;;;;;;;;1.67;1.67;;;;;22.65;95.46;101398.38;5074230;27;45402;-87
2023/08/06 10:37:58;;;;;;;;;0.00;0.00;;;;;;;;5098050;27;45312;-86
2023/08/06 10:40:24;;;;;;;;;2.67;1.00;;;;;22.72;95.70;101395.44;5097000;27;45366;-84
2023/08/06 10:42:49;;;;;;;;;1.67;1.67;;;;;22.76;95.86;101385.47;5078773;27;46824;-84
2023/08/06 10:45:18;;;;;;;;;1.00;1.00;;;;;22.83;95.64;101386.16;5079217;27;66644;-87
2023/08/06 10:47:44;;;;;;;;;2.67;1.67;;;;;22.82;95.36;101387.97;5098312;27;45394;-85
2023/08/06 10:50:18;;;;;;;;;1.00;1.00;;;;;22.91;96.61;101387.72;5069269;27;45498;-88
2023/08/06 10:52:44;;;;;;;;;3.33;1.00;;;;;23.01;95.03;101388.31;5058988;27;47938;-86
2023/08/06 10:55:10;;;;;;;;;2.67;0.00;;;;;23.07;93.60;101392.63;5059481;27;45318;-84
2023/08/06 10:57:36;;;;;;;;;1.00;1.00;;;;;23.05;93.25;101389.94;5094859;27;45477;-87
2023/08/06 11:00:04;;;;;;;;;0.67;0.67;;;;;23.03;92.69;101393.66;5076482;28;46098;-82
2023/08/06 11:02:33;;;;;;;;;2.33;1.00;;;;;22.97;93.82;101403.69;5095867;27;45857;-83
2023/08/06 11:04:58;;;;;;;;;2.33;1.00;;;;;23.30;93.42;101402.66;5071442;27;45502;-86
2023/08/06 11:07:28;;;;;;;;;1.00;1.00;;;;;23.43;92.03;101399.47;5059663;27;60648;-86
2023/08/06 11:10:01;;;;;;;;;1.00;1.00;;;;;23.67;92.58;101400.50;5063277;27;45585;-83
2023/08/06 11:12:27;;;;;;;;;1.00;1.00;;;;;23.94;92.12;101397.78;5079440;27;46690;-84
2023/08/06 11:14:53;;;;;;;;;1.00;1.00;;;;;24.01;88.64;101405.59;5075765;27;45296;-84
2023/08/06 11:17:18;;;;;;;;;0.67;0.00;;;;;23.90;88.21;101406.91;5078672;27;45404;-82